createdAt,value
2019-04-22T00:00:06.686Z,8.80
2019-04-22T00:01:12.829Z,8.80
2019-04-22T00:02:07.743Z,8.70
2019-04-22T00:03:08.781Z,8.70
2019-04-22T00:04:10.748Z,8.60
2019-04-22T00:05:18.588Z,8.60
2019-04-22T00:06:23.800Z,8.60
2019-04-22T00:07:21.971Z,8.50
2019-04-22T00:08:24.057Z,8.50
2019-04-22T00:09:30.470Z,8.50
2019-04-22T00:10:32.020Z,8.50
2019-04-22T00:11:28.647Z,8.50
2019-04-22T00:13:31.791Z,8.50
2019-04-22T00:14:27.909Z,8.40
2019-04-22T00:15:25.721Z,8.40
2019-04-22T00:16:30.588Z,8.40
2019-04-22T00:17:38.140Z,8.40
2019-04-22T00:18:42.510Z,8.40
2019-04-22T00:19:28.798Z,8.40
2019-04-22T00:21:31.554Z,8.30
2019-04-22T00:22:21.925Z,8.30
2019-04-22T00:23:30.515Z,8.30
2019-04-22T00:24:29.804Z,8.30
2019-04-22T00:25:34.251Z,8.30
2019-04-22T00:26:22.268Z,8.30
2019-04-22T00:27:33.432Z,8.30
2019-04-22T00:28:30.144Z,8.30
2019-04-22T00:29:49.102Z,8.30
2019-04-22T00:30:20.278Z,8.30
2019-04-22T00:31:26.546Z,8.30
2019-04-22T00:32:30.159Z,8.20
2019-04-22T00:33:31.050Z,8.20
2019-04-22T00:34:26.675Z,8.20
2019-04-22T00:36:21.528Z,8.20
2019-04-22T00:37:28.161Z,8.20
2019-04-22T00:38:29.938Z,8.10
2019-04-22T00:40:33.435Z,8.20
2019-04-22T00:41:35.601Z,8.10
2019-04-22T00:42:20.697Z,8.10
2019-04-22T00:43:32.048Z,8.10
2019-04-22T00:44:31.128Z,8.10
2019-04-22T00:45:32.728Z,8.10
2019-04-22T00:46:30.846Z,8.10
2019-04-22T00:47:32.012Z,8.10
2019-04-22T00:50:05.946Z,8.10
2019-04-22T00:50:29.782Z,8.10
2019-04-22T00:51:22.312Z,8.10
2019-04-22T00:54:27.820Z,8.00
2019-04-22T00:55:31.041Z,8.00
2019-04-22T00:56:21.790Z,8.00
2019-04-22T00:57:21.040Z,8.00
2019-04-22T00:58:30.613Z,8.00
2019-04-22T00:59:37.240Z,7.90
2019-04-22T01:00:44.109Z,7.90
2019-04-22T01:01:18.722Z,7.90
2019-04-22T01:02:32.391Z,7.90
2019-04-22T01:03:33.985Z,7.90
2019-04-22T01:04:38.943Z,7.90
2019-04-22T01:05:33.982Z,7.90
2019-04-22T01:06:19.842Z,7.90
2019-04-22T01:07:28.316Z,7.90
2019-04-22T01:09:29.852Z,7.90
2019-04-22T01:10:31.563Z,7.90
2019-04-22T01:11:22.529Z,7.90
2019-04-22T01:14:27.874Z,7.80
2019-04-22T01:15:23.165Z,7.80
2019-04-22T01:16:27.898Z,7.80
2019-04-22T01:18:27.747Z,7.80
2019-04-22T01:19:29.386Z,7.80
2019-04-22T01:20:54.155Z,7.80
2019-04-22T01:21:22.468Z,7.70
2019-04-22T01:23:27.687Z,7.70
2019-04-22T01:24:26.106Z,7.70
2019-04-22T01:25:23.057Z,7.70
2019-04-22T01:26:19.870Z,7.70
2019-04-22T01:27:20.299Z,7.60
2019-04-22T01:28:17.810Z,7.60
2019-04-22T01:29:18.607Z,7.60
2019-04-22T01:30:17.089Z,7.60
2019-04-22T01:31:12.213Z,7.60
2019-04-22T01:32:10.491Z,7.50
2019-04-22T01:33:11.968Z,7.50
2019-04-22T01:34:19.602Z,7.50
2019-04-22T01:35:17.669Z,7.50
2019-04-22T01:36:19.291Z,7.50
2019-04-22T01:37:23.622Z,7.50
2019-04-22T01:38:23.183Z,7.50
2019-04-22T01:39:28.583Z,7.50
2019-04-22T01:40:30.793Z,7.50
2019-04-22T01:42:24.237Z,7.50
2019-04-22T01:43:40.619Z,7.40
2019-04-22T01:44:32.615Z,7.40
2019-04-22T01:45:31.085Z,7.40
2019-04-22T01:46:24.556Z,7.40
2019-04-22T01:48:25.924Z,7.30
2019-04-22T01:50:30.504Z,7.30
2019-04-22T01:51:45.047Z,7.30
2019-04-22T01:53:26.922Z,7.30
2019-04-22T01:54:34.809Z,7.30
2019-04-22T01:55:30.683Z,7.30
2019-04-22T01:56:32.857Z,7.20
2019-04-22T01:57:22.114Z,7.20
2019-04-22T01:58:23.179Z,7.10
2019-04-22T01:59:25.530Z,7.10
2019-04-22T02:02:29.921Z,7.10
2019-04-22T02:03:39.430Z,7.10
2019-04-22T02:04:36.589Z,7.00
2019-04-22T02:05:28.492Z,7.00
2019-04-22T02:06:34.493Z,7.00
2019-04-22T02:08:37.718Z,7.00
2019-04-22T02:10:34.422Z,6.90
2019-04-22T02:11:38.721Z,6.90
2019-04-22T02:12:31.867Z,6.90
2019-04-22T02:13:35.111Z,6.90
2019-04-22T02:15:30.852Z,6.90
2019-04-22T02:16:33.529Z,6.90
2019-04-22T02:17:24.820Z,6.80
2019-04-22T02:20:30.971Z,6.80
2019-04-22T02:21:28.017Z,6.80
2019-04-22T02:24:25.939Z,6.70
2019-04-22T02:25:32.082Z,6.70
2019-04-22T02:26:35.302Z,6.70
2019-04-22T02:27:38.816Z,6.70
2019-04-22T02:28:36.309Z,6.70
2019-04-22T02:30:49.138Z,6.70
2019-04-22T02:31:35.498Z,6.70
2019-04-22T02:34:00.570Z,6.60
2019-04-22T02:34:39.391Z,6.70
2019-04-22T02:35:47.915Z,6.70
2019-04-22T02:36:33.770Z,6.60
2019-04-22T02:39:03.771Z,6.70
2019-04-22T02:39:31.273Z,6.60
2019-04-22T02:40:44.099Z,6.60
2019-04-22T02:41:25.942Z,6.60
2019-04-22T02:42:23.207Z,6.60
2019-04-22T02:44:35.278Z,6.60
2019-04-22T02:47:26.600Z,6.60
2019-04-22T02:48:52.675Z,6.60
2019-04-22T02:50:27.857Z,6.60
2019-04-22T02:55:40.561Z,6.50
2019-04-22T02:56:26.714Z,6.50
2019-04-22T02:57:29.564Z,6.50
2019-04-22T02:58:46.535Z,6.50
2019-04-22T02:59:21.768Z,6.40
2019-04-22T03:00:37.035Z,6.40
2019-04-22T03:02:27.994Z,6.40
2019-04-22T03:04:22.070Z,6.40
2019-04-22T03:06:30.264Z,6.40
2019-04-22T03:08:39.207Z,6.40
2019-04-22T03:09:27.892Z,6.40
2019-04-22T03:11:24.162Z,6.40
2019-04-22T03:12:23.103Z,6.30
2019-04-22T03:13:46.636Z,6.30
2019-04-22T03:14:33.570Z,6.30
2019-04-22T03:15:29.592Z,6.20
2019-04-22T03:16:37.418Z,6.20
2019-04-22T03:17:38.120Z,6.20
2019-04-22T03:20:33.253Z,6.20
2019-04-22T03:21:23.679Z,6.20
2019-04-22T03:22:34.108Z,6.10
2019-04-22T03:23:45.032Z,6.10
2019-04-22T03:24:33.031Z,6.10
2019-04-22T03:29:43.847Z,6.10
2019-04-22T03:33:51.211Z,5.90
2019-04-22T03:35:48.707Z,5.90
2019-04-22T03:37:09.195Z,5.90
2019-04-22T03:38:53.595Z,5.80
2019-04-22T03:39:44.392Z,5.80
2019-04-22T03:42:31.615Z,5.80
2019-04-22T03:44:38.172Z,5.70
2019-04-22T03:46:41.592Z,5.70
2019-04-22T03:47:25.853Z,5.80
2019-04-22T03:48:25.420Z,5.80
2019-04-22T03:49:45.167Z,5.80
2019-04-22T03:50:24.649Z,5.70
2019-04-22T03:51:45.452Z,5.70
2019-04-22T03:52:19.952Z,5.70
2019-04-22T03:53:32.551Z,5.70
2019-04-22T03:55:28.705Z,5.70
2019-04-22T03:58:36.588Z,5.60
2019-04-22T03:59:41.018Z,5.70
2019-04-22T04:00:42.801Z,5.60
2019-04-22T04:01:43.572Z,5.60
2019-04-22T04:02:45.534Z,5.60
2019-04-22T04:03:28.031Z,5.60
2019-04-22T04:06:49.494Z,5.60
2019-04-22T04:08:26.190Z,5.50
2019-04-22T04:09:31.952Z,5.60
2019-04-22T04:10:47.477Z,5.60
2019-04-22T04:13:02.601Z,5.60
2019-04-22T04:13:22.768Z,5.50
2019-04-22T04:14:26.043Z,5.50
2019-04-22T04:15:37.952Z,5.50
2019-04-22T04:16:38.570Z,5.50
2019-04-22T04:18:28.827Z,5.40
2019-04-22T04:20:36.247Z,5.40
2019-04-22T04:21:40.530Z,5.30
2019-04-22T04:24:31.659Z,5.30
2019-04-22T04:25:42.050Z,5.30
2019-04-22T04:28:49.991Z,5.30
2019-04-22T04:29:54.094Z,5.30
2019-04-22T04:30:31.084Z,5.30
2019-04-22T04:31:40.468Z,5.30
2019-04-22T04:33:37.823Z,5.30
2019-04-22T04:34:53.275Z,5.30
2019-04-22T04:36:41.416Z,5.30
2019-04-22T04:38:28.526Z,5.30
2019-04-22T04:39:42.571Z,5.30
2019-04-22T04:40:30.964Z,5.30
2019-04-22T04:41:41.314Z,5.30
2019-04-22T04:42:38.308Z,5.40
2019-04-22T04:44:57.635Z,5.50
2019-04-22T04:50:37.665Z,6.00
2019-04-22T04:52:38.351Z,6.50
2019-04-22T04:53:24.265Z,6.70
2019-04-22T04:54:35.320Z,6.70
2019-04-22T04:55:33.017Z,6.90
2019-04-22T04:57:43.194Z,7.30
2019-04-22T04:58:33.681Z,7.70
2019-04-22T04:59:50.500Z,7.70
2019-04-22T05:00:47.867Z,7.90
2019-04-22T05:01:29.779Z,8.10
2019-04-22T05:02:37.067Z,8.30
2019-04-22T05:07:40.182Z,9.20
2019-04-22T05:08:37.645Z,9.40
2019-04-22T05:09:18.156Z,9.60
2019-04-22T05:11:34.727Z,10.20
2019-04-22T05:12:33.350Z,10.20
2019-04-22T05:13:32.062Z,10.30
2019-04-22T05:14:28.309Z,10.50
2019-04-22T05:15:22.700Z,10.60
2019-04-22T05:16:46.169Z,10.80
2019-04-22T05:17:25.016Z,10.90
2019-04-22T05:18:37.059Z,11.10
2019-04-22T05:19:30.537Z,11.40
2019-04-22T05:20:40.351Z,11.40
2019-04-22T05:21:29.321Z,11.50
2019-04-22T05:22:33.446Z,11.70
2019-04-22T05:23:37.024Z,11.90
2019-04-22T05:24:22.503Z,12.00
2019-04-22T05:25:26.385Z,12.20
2019-04-22T05:26:32.360Z,12.30
2019-04-22T05:28:23.523Z,12.70
2019-04-22T05:30:31.833Z,12.70
2019-04-22T05:33:34.653Z,13.20
2019-04-22T05:34:27.850Z,13.20
2019-04-22T05:36:32.595Z,13.60
2019-04-22T05:40:22.811Z,13.90
2019-04-22T05:41:34.851Z,14.20
2019-04-22T05:42:28.230Z,14.30
2019-04-22T05:44:34.169Z,14.60
2019-04-22T05:45:24.607Z,14.50
2019-04-22T05:46:28.136Z,14.60
2019-04-22T05:48:32.881Z,14.80
2019-04-22T05:49:28.549Z,15.00
2019-04-22T05:50:26.512Z,15.10
2019-04-22T05:51:30.926Z,15.10
2019-04-22T05:52:24.669Z,15.20
2019-04-22T05:54:20.747Z,15.40
2019-04-22T05:57:36.892Z,15.50
2019-04-22T06:01:37.782Z,15.60
2019-04-22T06:02:47.215Z,15.80
2019-04-22T06:03:28.163Z,15.80
2019-04-22T06:04:21.364Z,15.80
2019-04-22T06:05:34.169Z,16.00
2019-04-22T06:06:17.715Z,16.00
2019-04-22T06:07:19.059Z,16.10
2019-04-22T06:08:28.970Z,16.20
2019-04-22T06:09:24.140Z,16.20
2019-04-22T06:10:32.510Z,16.30
2019-04-22T06:11:28.994Z,16.40
2019-04-22T06:12:25.845Z,16.40
2019-04-22T06:13:27.462Z,16.50
2019-04-22T06:14:24.454Z,16.40
2019-04-22T06:15:28.641Z,16.40
2019-04-22T06:18:22.254Z,16.40
2019-04-22T06:19:24.301Z,16.50
2019-04-22T06:20:32.025Z,16.50
2019-04-22T06:21:32.530Z,16.60
2019-04-22T06:22:36.881Z,16.60
2019-04-22T06:23:34.213Z,16.70
2019-04-22T06:25:36.509Z,16.70
2019-04-22T06:27:32.594Z,16.80
2019-04-22T06:29:19.070Z,16.90
2019-04-22T06:30:34.097Z,17.00
2019-04-22T06:31:24.074Z,17.00
2019-04-22T06:32:26.173Z,17.10
2019-04-22T06:33:20.042Z,17.20
2019-04-22T06:34:21.952Z,17.20
2019-04-22T06:35:36.083Z,17.30
2019-04-22T06:36:35.749Z,17.30
2019-04-22T06:37:33.526Z,17.20
2019-04-22T06:39:27.662Z,17.20
2019-04-22T06:40:31.356Z,17.30
2019-04-22T06:41:27.112Z,17.30
2019-04-22T06:45:28.457Z,17.30
2019-04-22T06:47:43.682Z,17.30
2019-04-22T06:49:34.814Z,17.30
2019-04-22T06:50:35.639Z,17.30
2019-04-22T06:52:17.585Z,17.20
2019-04-22T06:53:23.553Z,17.20
2019-04-22T06:55:35.289Z,17.20
2019-04-22T06:58:28.098Z,17.10
2019-04-22T06:59:31.000Z,17.20
2019-04-22T07:00:30.350Z,17.20
2019-04-22T07:01:35.347Z,17.10
2019-04-22T07:02:23.662Z,17.00
2019-04-22T07:03:41.330Z,17.00
2019-04-22T07:04:26.794Z,17.00
2019-04-22T07:05:32.409Z,17.00
2019-04-22T07:06:34.656Z,17.00
2019-04-22T07:07:18.146Z,17.00
2019-04-22T07:09:05.697Z,16.90
2019-04-22T07:10:28.124Z,13.80
2019-04-22T07:12:28.638Z,16.90
2019-04-22T07:14:21.894Z,16.80
2019-04-22T07:15:46.140Z,16.70
2019-04-22T07:16:31.353Z,16.70
2019-04-22T07:17:35.333Z,16.70
2019-04-22T07:20:30.009Z,16.50
2019-04-22T07:21:30.227Z,16.50
2019-04-22T07:22:21.358Z,16.50
2019-04-22T07:23:32.910Z,16.50
2019-04-22T07:24:40.205Z,16.40
2019-04-22T07:25:28.925Z,16.40
2019-04-22T07:26:36.039Z,16.40
2019-04-22T07:27:34.053Z,16.50
2019-04-22T07:28:22.557Z,16.40
2019-04-22T07:29:18.775Z,16.40
2019-04-22T07:31:26.450Z,16.50
2019-04-22T07:32:53.010Z,16.50
2019-04-22T07:33:32.211Z,16.50
2019-04-22T07:34:32.926Z,16.50
2019-04-22T07:35:35.706Z,16.50
2019-04-22T07:38:26.234Z,16.50
2019-04-22T07:39:22.876Z,16.50
2019-04-22T07:40:33.909Z,16.50
2019-04-22T07:41:31.570Z,16.50
2019-04-22T07:42:30.896Z,16.40
2019-04-22T07:43:39.589Z,16.40
2019-04-22T07:44:30.698Z,16.50
2019-04-22T07:45:29.088Z,16.50
2019-04-22T07:46:41.286Z,16.50
2019-04-22T07:47:31.002Z,16.50
2019-04-22T07:48:37.377Z,16.60
2019-04-22T07:49:25.674Z,16.60
2019-04-22T07:50:35.505Z,16.80
2019-04-22T07:51:19.706Z,16.70
2019-04-22T07:52:22.421Z,16.80
2019-04-22T07:53:27.606Z,16.80
2019-04-22T07:54:31.402Z,16.90
2019-04-22T07:55:26.759Z,16.90
2019-04-22T07:56:29.061Z,16.90
2019-04-22T07:57:27.284Z,16.90
2019-04-22T07:58:28.529Z,16.90
2019-04-22T07:59:27.851Z,16.90
2019-04-22T08:00:22.505Z,16.90
2019-04-22T08:01:26.252Z,16.90
2019-04-22T08:02:37.238Z,16.80
2019-04-22T08:03:37.103Z,16.80
2019-04-22T08:04:48.720Z,16.80
2019-04-22T08:05:32.649Z,16.80
2019-04-22T08:06:27.901Z,16.80
2019-04-22T08:07:29.632Z,16.80
2019-04-22T08:08:28.602Z,16.90
2019-04-22T08:09:35.437Z,16.80
2019-04-22T08:10:36.641Z,17.00
2019-04-22T08:11:43.319Z,17.00
2019-04-22T08:12:33.055Z,17.10
2019-04-22T08:13:30.231Z,17.10
2019-04-22T08:14:34.266Z,17.20
2019-04-22T08:15:32.199Z,17.20
2019-04-22T08:16:28.249Z,17.40
2019-04-22T08:17:51.731Z,17.40
2019-04-22T08:18:21.692Z,17.40
2019-04-22T08:19:34.889Z,17.50
2019-04-22T08:20:22.279Z,17.50
2019-04-22T08:21:29.354Z,17.50
2019-04-22T08:22:25.318Z,17.50
2019-04-22T08:23:30.116Z,17.60
2019-04-22T08:24:35.409Z,17.60
2019-04-22T08:25:31.250Z,17.60
2019-04-22T08:27:29.796Z,17.60
2019-04-22T08:28:25.190Z,17.50
2019-04-22T08:29:25.010Z,17.70
2019-04-22T08:30:33.412Z,17.70
2019-04-22T08:32:34.323Z,17.80
2019-04-22T08:33:21.420Z,17.80
2019-04-22T08:34:29.033Z,17.80
2019-04-22T08:35:39.222Z,17.80
2019-04-22T08:36:31.378Z,17.80
2019-04-22T08:37:47.215Z,17.80
2019-04-22T08:38:35.271Z,17.80
2019-04-22T08:39:30.801Z,17.80
2019-04-22T08:40:35.973Z,17.80
2019-04-22T08:42:42.728Z,17.80
2019-04-22T08:43:36.120Z,17.80
2019-04-22T08:45:31.636Z,17.90
2019-04-22T08:46:32.882Z,17.90
2019-04-22T08:47:30.569Z,17.90
2019-04-22T08:48:28.987Z,17.90
2019-04-22T08:49:31.782Z,17.90
2019-04-22T08:50:19.569Z,17.90
2019-04-22T08:51:29.137Z,18.00
2019-04-22T08:52:20.560Z,18.00
2019-04-22T08:53:23.281Z,18.00
2019-04-22T08:54:29.587Z,18.00
2019-04-22T08:55:31.154Z,18.00
2019-04-22T08:56:31.977Z,18.00
2019-04-22T08:57:46.698Z,18.00
2019-04-22T08:58:19.860Z,18.00
2019-04-22T08:59:14.758Z,18.00
2019-04-22T09:00:19.437Z,18.10
2019-04-22T09:01:26.654Z,18.10
2019-04-22T09:02:32.348Z,18.20
2019-04-22T09:03:30.191Z,18.30
2019-04-22T09:04:28.976Z,18.30
2019-04-22T09:05:36.648Z,18.40
2019-04-22T09:06:38.291Z,18.40
2019-04-22T09:07:27.921Z,18.40
2019-04-22T09:08:33.628Z,18.40
2019-04-22T09:09:26.315Z,18.50
2019-04-22T09:10:23.781Z,18.50
2019-04-22T09:11:34.812Z,18.50
2019-04-22T09:14:24.016Z,18.60
2019-04-22T09:15:30.284Z,18.60
2019-04-22T09:16:26.142Z,18.60
2019-04-22T09:17:19.776Z,18.70
2019-04-22T09:18:21.504Z,18.70
2019-04-22T09:19:28.250Z,18.80
2019-04-22T09:20:32.311Z,18.80
2019-04-22T09:21:32.481Z,18.80
2019-04-22T09:22:21.025Z,18.80
2019-04-22T09:23:36.679Z,18.80
2019-04-22T09:24:35.471Z,18.80
2019-04-22T09:25:34.061Z,18.90
2019-04-22T09:26:22.560Z,18.90
2019-04-22T09:27:37.898Z,18.90
2019-04-22T09:28:30.366Z,18.90
2019-04-22T09:29:33.643Z,19.00
2019-04-22T09:30:33.947Z,19.00
2019-04-22T09:31:35.183Z,19.00
2019-04-22T09:33:20.237Z,19.10
2019-04-22T09:35:31.383Z,19.10
2019-04-22T09:36:33.559Z,19.10
2019-04-22T09:37:26.659Z,19.10
2019-04-22T09:39:20.902Z,19.10
2019-04-22T09:40:34.061Z,19.20
2019-04-22T09:41:31.313Z,19.20
2019-04-22T09:42:31.592Z,19.20
2019-04-22T09:44:30.708Z,19.20
2019-04-22T09:45:27.291Z,19.20
2019-04-22T09:46:34.230Z,19.30
2019-04-22T09:47:33.418Z,19.30
2019-04-22T09:49:36.368Z,19.30
2019-04-22T09:52:27.568Z,19.40
2019-04-22T09:53:28.409Z,19.40
2019-04-22T09:55:21.087Z,19.40
2019-04-22T09:57:20.890Z,19.40
2019-04-22T09:58:31.236Z,19.40
2019-04-22T09:59:20.029Z,19.40
2019-04-22T10:00:26.726Z,19.40
2019-04-22T10:01:34.054Z,19.50
2019-04-22T10:02:33.148Z,19.40
2019-04-22T10:03:19.413Z,19.50
2019-04-22T10:04:39.301Z,19.50
2019-04-22T10:05:27.286Z,19.50
2019-04-22T10:06:33.197Z,19.60
2019-04-22T10:07:31.621Z,19.60
2019-04-22T10:08:31.448Z,19.70
2019-04-22T10:09:32.681Z,19.70
2019-04-22T10:10:26.637Z,19.70
2019-04-22T10:13:34.216Z,19.80
2019-04-22T10:14:37.883Z,19.80
2019-04-22T10:16:25.140Z,19.80
2019-04-22T10:17:31.230Z,19.90
2019-04-22T10:19:29.348Z,19.90
2019-04-22T10:20:37.666Z,20.00
2019-04-22T10:22:31.925Z,20.00
2019-04-22T10:23:31.153Z,20.00
2019-04-22T10:24:24.307Z,20.00
2019-04-22T10:25:29.183Z,20.10
2019-04-22T10:26:33.235Z,20.10
2019-04-22T10:28:32.066Z,20.10
2019-04-22T10:29:24.213Z,20.10
2019-04-22T10:30:38.114Z,20.20
2019-04-22T10:31:23.424Z,20.10
2019-04-22T10:32:28.936Z,20.20
2019-04-22T10:33:25.392Z,20.20
2019-04-22T10:34:13.753Z,20.20
2019-04-22T10:35:08.114Z,20.20
2019-04-22T10:36:05.863Z,20.20
2019-04-22T10:37:09.727Z,20.20
2019-04-22T10:38:06.034Z,20.20
2019-04-22T10:39:06.357Z,20.30
2019-04-22T10:40:08.148Z,20.20
2019-04-22T10:41:05.197Z,20.30
2019-04-22T10:42:09.083Z,20.30
2019-04-22T10:43:05.307Z,20.30
2019-04-22T10:44:08.774Z,20.30
2019-04-22T10:45:06.037Z,20.30
2019-04-22T10:46:06.112Z,20.30
2019-04-22T10:47:06.273Z,20.30
2019-04-22T10:48:06.036Z,20.30
2019-04-22T10:49:06.339Z,20.30
2019-04-22T10:50:06.691Z,20.30
2019-04-22T10:51:06.148Z,20.30
2019-04-22T10:52:06.683Z,20.30
2019-04-22T10:53:05.682Z,20.40
2019-04-22T10:54:05.285Z,20.40
2019-04-22T10:55:11.630Z,20.40
2019-04-22T10:56:05.180Z,20.40
2019-04-22T10:57:04.706Z,20.50
2019-04-22T10:58:06.686Z,20.50
2019-04-22T10:59:10.900Z,20.50
2019-04-22T11:00:05.111Z,20.50
2019-04-22T11:01:13.585Z,20.60
2019-04-22T11:02:05.455Z,20.50
2019-04-22T11:03:04.676Z,20.60
2019-04-22T11:04:11.175Z,20.60
2019-04-22T11:05:06.116Z,20.60
2019-04-22T11:06:05.609Z,20.60
2019-04-22T11:07:07.567Z,20.60
2019-04-22T11:08:07.659Z,20.50
2019-04-22T11:09:07.007Z,20.50
2019-04-22T11:10:20.252Z,20.50
2019-04-22T11:11:21.200Z,20.60
2019-04-22T11:12:15.234Z,20.60
2019-04-22T11:13:05.160Z,20.60
2019-04-22T11:14:07.063Z,20.60
2019-04-22T11:15:05.671Z,20.60
2019-04-22T11:16:05.441Z,20.60
2019-04-22T11:17:05.643Z,20.60
2019-04-22T11:18:05.269Z,20.60
2019-04-22T11:19:05.710Z,20.60
2019-04-22T11:20:05.809Z,20.50
2019-04-22T11:21:05.418Z,20.50
2019-04-22T11:22:09.523Z,20.50
2019-04-22T11:23:06.673Z,20.50
2019-04-22T11:24:05.146Z,20.40
2019-04-22T11:25:05.686Z,20.40
2019-04-22T11:26:05.885Z,20.40
2019-04-22T11:27:05.327Z,20.40
2019-04-22T11:28:05.505Z,20.40
2019-04-22T11:29:05.475Z,20.40
2019-04-22T11:30:05.818Z,20.40
2019-04-22T11:31:06.063Z,20.40
2019-04-22T11:32:06.306Z,20.50
2019-04-22T11:33:06.715Z,20.50
2019-04-22T11:34:06.231Z,20.40
2019-04-22T11:35:05.963Z,20.40
2019-04-22T11:36:06.070Z,20.40
2019-04-22T11:37:05.233Z,20.40
2019-04-22T11:38:10.794Z,20.40
2019-04-22T11:39:07.567Z,20.40
2019-04-22T11:40:11.224Z,20.40
2019-04-22T11:41:05.482Z,20.30
2019-04-22T11:42:05.223Z,20.30
2019-04-22T11:43:06.064Z,20.30
2019-04-22T11:44:07.438Z,20.30
2019-04-22T11:45:05.550Z,20.30
2019-04-22T11:46:05.219Z,20.20
2019-04-22T11:47:05.480Z,20.30
2019-04-22T11:48:05.624Z,20.30
2019-04-22T11:49:05.817Z,20.20
2019-04-22T11:50:05.949Z,20.30
2019-04-22T11:51:06.160Z,20.20
2019-04-22T11:52:07.244Z,20.20
2019-04-22T11:53:05.167Z,20.20
2019-04-22T11:54:05.202Z,20.20
2019-04-22T11:55:04.859Z,20.20
2019-04-22T11:56:06.753Z,20.20
2019-04-22T11:57:05.450Z,20.20
2019-04-22T11:58:06.603Z,20.30
2019-04-22T11:59:10.890Z,20.30
2019-04-22T12:00:05.052Z,20.30
2019-04-22T12:01:06.500Z,20.30
2019-04-22T12:02:04.920Z,20.30
2019-04-22T12:03:06.887Z,20.40
2019-04-22T12:04:05.290Z,20.30
2019-04-22T12:05:06.019Z,20.40
2019-04-22T12:06:10.255Z,20.30
2019-04-22T12:07:05.874Z,20.40
2019-04-22T12:08:07.057Z,20.40
2019-04-22T12:09:05.722Z,20.40
2019-04-22T12:10:17.410Z,20.40
2019-04-22T12:11:05.997Z,20.40
2019-04-22T12:12:05.717Z,20.40
2019-04-22T12:13:10.493Z,20.30
2019-04-22T12:14:10.143Z,20.30
2019-04-22T12:15:08.472Z,20.30
2019-04-22T12:16:05.582Z,20.30
2019-04-22T12:17:05.689Z,20.30
2019-04-22T12:18:09.121Z,20.30
2019-04-22T12:19:05.126Z,20.20
2019-04-22T12:20:08.317Z,20.30
2019-04-22T12:21:05.527Z,20.30
2019-04-22T12:22:07.272Z,20.20
2019-04-22T12:23:11.118Z,20.20
2019-04-22T12:24:05.509Z,20.20
2019-04-22T12:25:06.256Z,20.20
2019-04-22T12:26:09.708Z,20.30
2019-04-22T12:27:10.637Z,20.20
2019-04-22T12:28:05.777Z,20.10
2019-04-22T12:29:04.999Z,20.20
2019-04-22T12:30:04.991Z,20.10
2019-04-22T12:31:05.692Z,20.10
2019-04-22T12:32:05.296Z,20.10
2019-04-22T12:33:09.101Z,20.10
2019-04-22T12:34:05.978Z,20.00
2019-04-22T12:35:06.943Z,20.00
2019-04-22T12:36:06.454Z,20.00
2019-04-22T12:37:06.658Z,20.00
2019-04-22T12:38:11.066Z,19.90
2019-04-22T12:39:05.196Z,19.90
2019-04-22T12:40:06.475Z,19.90
2019-04-22T12:41:07.813Z,19.90
2019-04-22T12:42:06.148Z,19.90
2019-04-22T12:43:06.563Z,19.80
2019-04-22T12:44:05.644Z,19.80
2019-04-22T12:45:06.421Z,19.80
2019-04-22T12:46:05.917Z,19.80
2019-04-22T12:47:06.098Z,19.90
2019-04-22T12:48:06.248Z,19.90
2019-04-22T12:49:05.462Z,19.80
2019-04-22T12:50:12.179Z,19.90
2019-04-22T12:51:06.997Z,19.80
2019-04-22T12:52:05.306Z,19.90
2019-04-22T12:53:10.560Z,19.90
2019-04-22T12:54:06.823Z,19.90
2019-04-22T12:55:05.927Z,19.90
2019-04-22T12:56:05.106Z,19.90
2019-04-22T12:57:05.841Z,19.80
2019-04-22T12:58:05.400Z,19.90
2019-04-22T12:59:05.786Z,19.80
2019-04-22T13:00:05.845Z,19.90
2019-04-22T13:01:08.715Z,19.90
2019-04-22T13:02:04.994Z,19.90
2019-04-22T13:03:05.239Z,19.90
2019-04-22T13:04:07.726Z,19.90
2019-04-22T13:05:08.095Z,19.90
2019-04-22T13:06:05.885Z,19.90
2019-04-22T13:07:06.114Z,19.90
2019-04-22T13:08:15.789Z,19.90
2019-04-22T13:09:06.146Z,19.90
2019-04-22T13:10:06.034Z,19.90
2019-04-22T13:11:11.693Z,19.90
2019-04-22T13:12:04.765Z,19.90
2019-04-22T13:13:06.973Z,19.90
2019-04-22T13:14:05.067Z,19.90
2019-04-22T13:15:06.446Z,19.90
2019-04-22T13:16:04.948Z,19.90
2019-04-22T13:17:08.106Z,19.90
2019-04-22T13:18:13.327Z,19.90
2019-04-22T13:19:09.345Z,19.90
2019-04-22T13:20:05.803Z,19.90
2019-04-22T13:21:06.454Z,19.90
2019-04-22T13:22:04.993Z,19.90
2019-04-22T13:23:05.448Z,19.90
2019-04-22T13:24:06.945Z,20.00
2019-04-22T13:25:05.883Z,19.90
2019-04-22T13:26:08.307Z,19.90
2019-04-22T13:27:06.664Z,19.90
2019-04-22T13:28:05.104Z,19.90
2019-04-22T13:29:05.180Z,19.80
2019-04-22T13:30:06.219Z,19.80
2019-04-22T13:31:05.725Z,19.80
2019-04-22T13:32:06.806Z,19.70
2019-04-22T13:33:05.172Z,19.70
2019-04-22T13:34:09.486Z,19.80
2019-04-22T13:35:05.796Z,19.80
2019-04-22T13:36:06.024Z,19.80
2019-04-22T13:37:05.144Z,19.80
2019-04-22T13:38:06.790Z,19.80
2019-04-22T13:39:04.898Z,19.80
2019-04-22T13:40:05.376Z,19.80
2019-04-22T13:41:14.513Z,19.80
2019-04-22T13:42:08.497Z,19.80
2019-04-22T13:43:09.037Z,19.80
2019-04-22T13:44:10.291Z,19.80
2019-04-22T13:45:05.226Z,19.80
2019-04-22T13:46:06.026Z,19.80
2019-04-22T13:47:19.532Z,19.80
2019-04-22T13:48:21.731Z,19.80
2019-04-22T13:51:36.016Z,19.80
2019-04-22T13:52:31.674Z,19.70
2019-04-22T13:53:44.592Z,19.70
2019-04-22T13:56:23.570Z,19.80
2019-04-22T13:57:24.696Z,19.80
2019-04-22T13:58:16.983Z,19.80
2019-04-22T13:59:13.426Z,19.80
2019-04-22T14:00:13.693Z,19.70
2019-04-22T14:01:04.989Z,19.70
2019-04-22T14:02:06.088Z,19.70
2019-04-22T14:03:06.771Z,19.70
2019-04-22T14:04:10.247Z,19.60
2019-04-22T14:05:06.490Z,19.70
2019-04-22T14:06:04.937Z,19.60
2019-04-22T14:07:07.120Z,19.60
2019-04-22T14:08:08.645Z,19.50
2019-04-22T14:09:05.292Z,19.50
2019-04-22T14:10:06.566Z,19.50
2019-04-22T14:11:16.506Z,19.50
2019-04-22T14:12:07.289Z,19.50
2019-04-22T14:13:05.767Z,19.50
2019-04-22T14:14:05.149Z,19.50
2019-04-22T14:15:06.156Z,19.50
2019-04-22T14:16:06.789Z,19.50
2019-04-22T14:17:05.133Z,19.50
2019-04-22T14:18:05.273Z,19.50
2019-04-22T14:19:05.650Z,19.50
2019-04-22T14:20:10.904Z,19.40
2019-04-22T14:21:05.253Z,19.40
2019-04-22T14:22:07.708Z,19.40
2019-04-22T14:23:06.542Z,19.40
2019-04-22T14:24:05.106Z,19.40
2019-04-22T14:25:05.090Z,19.40
2019-04-22T14:26:05.185Z,19.40
2019-04-22T14:27:14.880Z,19.40
2019-04-22T14:28:09.987Z,19.40
2019-04-22T14:29:06.009Z,19.30
2019-04-22T14:30:12.670Z,19.30
2019-04-22T14:31:06.624Z,19.30
2019-04-22T14:32:15.398Z,19.30
2019-04-22T14:33:06.623Z,19.30
2019-04-22T14:34:07.384Z,19.30
2019-04-22T14:35:05.084Z,19.30
2019-04-22T14:36:04.986Z,19.30
2019-04-22T14:37:08.103Z,19.20
2019-04-22T14:38:14.165Z,19.20
2019-04-22T14:39:05.962Z,19.10
2019-04-22T14:40:07.492Z,19.10
2019-04-22T14:41:05.921Z,19.10
2019-04-22T14:42:28.134Z,19.10
2019-04-22T14:43:24.505Z,19.10
2019-04-22T14:45:27.913Z,18.90
2019-04-22T14:46:26.242Z,19.00
2019-04-22T14:47:30.780Z,18.90
2019-04-22T14:48:35.212Z,18.90
2019-04-22T14:49:28.067Z,18.90
2019-04-22T14:51:15.874Z,18.80
2019-04-22T14:52:27.499Z,18.80
2019-04-22T14:53:30.471Z,18.80
2019-04-22T14:54:18.049Z,18.80
2019-04-22T14:55:13.706Z,18.70
2019-04-22T14:56:06.487Z,18.70
2019-04-22T14:57:10.817Z,18.70
2019-04-22T14:58:10.938Z,18.70
2019-04-22T14:59:05.191Z,18.70
2019-04-22T15:00:09.912Z,18.70
2019-04-22T15:01:06.685Z,18.70
2019-04-22T15:02:05.640Z,18.60
2019-04-22T15:03:05.845Z,18.60
2019-04-22T15:04:05.407Z,18.60
2019-04-22T15:05:06.004Z,18.60
2019-04-22T15:06:06.204Z,18.60
2019-04-22T15:07:05.305Z,18.60
2019-04-22T15:08:06.926Z,18.60
2019-04-22T15:09:05.894Z,18.60
2019-04-22T15:10:06.056Z,18.60
2019-04-22T15:11:10.943Z,18.60
2019-04-22T15:12:14.683Z,18.60
2019-04-22T15:13:05.343Z,18.60
2019-04-22T15:14:05.445Z,18.60
2019-04-22T15:15:09.130Z,18.60
2019-04-22T15:16:05.761Z,18.60
2019-04-22T15:17:06.871Z,18.60
2019-04-22T15:18:06.002Z,18.50
2019-04-22T15:19:04.776Z,18.50
2019-04-22T15:20:05.798Z,18.50
2019-04-22T15:21:06.861Z,18.50
2019-04-22T15:22:05.174Z,18.50
2019-04-22T15:23:06.627Z,18.50
2019-04-22T15:24:06.594Z,18.40
2019-04-22T15:25:10.394Z,18.40
2019-04-22T15:26:06.502Z,18.40
2019-04-22T15:27:06.553Z,18.40
2019-04-22T15:28:05.755Z,18.30
2019-04-22T15:29:11.368Z,18.20
2019-04-22T15:30:05.759Z,18.20